Dumont, Texas
Current Conditions -  °F | °C
As of 12:53 AM on Friday 31 Oct 2014 (Local Time) from KCDS Reporting Station
Clear Clear  
Wind Chill: 53°   Ceiling: Unl
Heat Index: 53°   Visibility: 10mi
Dew Point: 33°   Wind: 7mph
Humidity: 47%   Direction: 350°N
Pressure: 30.31"   Gusts: NA
Location:  33.81°N, 100.52°W
Report Text: KCDS 310553Z AUTO 35006KT 10SM CLR 12/01 A3031 RMK AO2 SLP251 T01170006 10222 20106 402670094 51017
Loading
Personal Weather Stations






























Interactive Weather Map
Tropical Storm Tracking
New forecast layout! Learn more

10-Day Weather Forecast

Advertisements
Track Severe Weather on mobile